Time;durP1;ratioP1;P1;durP2;ratioP2;P2;SDS_P1;SDS_P2;PMS_P1;PMS_P2;Temp;Humidity;BMP_temperature;BMP_pressure;BME280_temperature;BME280_humidity;BME280_pressure;Samples;Min_cycle;Max_cycle;Signal;HPM_P1;HPM_P2
2022/07/29 00:03:07;;;;;;;6.27;5.67;;;;;;;24.92;56.37;98566.97;6923943;28;20643;-78
2022/07/29 00:06:30;;;;;;;6.13;5.57;;;;;;;24.87;56.13;98553.28;6924036;28;20211;-78
2022/07/29 00:09:51;;;;;;;6.47;5.97;;;;;;;24.73;56.50;98553.22;6923650;28;20208;-78
2022/07/29 00:13:13;;;;;;;8.73;6.90;;;;;;;23.70;60.31;98569.09;6945540;28;20221;-78
2022/07/29 00:16:34;;;;;;;7.70;7.00;;;;;;;23.64;60.74;98551.00;6928718;28;20209;-77
2022/07/29 00:19:56;;;;;;;7.03;6.43;;;;;;;23.92;60.53;98557.53;6922110;28;20305;-78
2022/07/29 00:23:19;;;;;;;8.60;7.17;;;;;;;23.92;60.71;98533.59;6923079;28;20258;-78
2022/07/29 00:26:40;;;;;;;7.10;6.40;;;;;;;24.47;59.16;98531.88;6925748;28;20569;-78
2022/07/29 00:30:03;;;;;;;6.90;6.20;;;;;;;24.62;57.99;98543.53;6922551;28;20668;-78
2022/07/29 00:33:25;;;;;;;6.13;5.67;;;;;;;24.51;58.03;98544.78;6921797;28;20251;-78
2022/07/29 00:36:46;;;;;;;6.80;6.10;;;;;;;24.71;57.07;98536.19;6923199;28;20202;-78
2022/07/29 00:40:10;;;;;;;6.23;5.70;;;;;;;24.39;58.32;98529.81;6922430;28;20298;-78
2022/07/29 00:43:32;;;;;;;6.83;6.13;;;;;;;24.33;58.63;98533.78;6922725;28;20296;-78
2022/07/29 00:46:53;;;;;;;8.10;6.43;;;;;;;24.11;59.17;98534.41;6923790;28;20211;-79
2022/07/29 00:50:15;;;;;;;6.63;5.77;;;;;;;24.40;58.69;98524.00;6922436;28;20667;-78
2022/07/29 00:53:36;;;;;;;6.80;6.20;;;;;;;24.37;59.19;98502.53;6923011;28;20243;-79
2022/07/29 00:57:00;;;;;;;7.13;6.33;;;;;;;24.61;58.28;98538.31;6923298;28;20238;-78
2022/07/29 01:00:24;;;;;;;6.83;6.23;;;;;;;24.05;60.04;98537.50;6922592;28;20254;-79
2022/07/29 01:03:45;;;;;;;8.40;7.33;;;;;;;24.00;60.16;98521.06;6923346;28;20270;-79
2022/07/29 01:07:07;;;;;;;8.60;6.63;;;;;;;23.86;60.28;98525.66;6922636;28;20360;-79
2022/07/29 01:10:30;;;;;;;7.63;6.93;;;;;;;23.99;60.38;98524.94;6922679;28;20235;-78
2022/07/29 01:13:53;;;;;;;7.50;6.87;;;;;;;24.05;60.23;98527.31;6922558;28;20255;-79
2022/07/29 01:17:19;;;;;;;7.37;6.77;;;;;;;23.97;60.88;98519.75;6922918;28;20210;-78
2022/07/29 01:20:56;;;;;;;7.80;7.00;;;;;;;24.10;60.02;98530.00;6922619;28;20242;-78
2022/07/29 01:24:33;;;;;;;7.53;6.83;;;;;;;23.99;59.74;98516.66;6922852;28;20275;-78
2022/07/29 01:28:06;;;;;;;7.70;7.00;;;;;;;23.84;61.02;98520.44;6921872;28;20288;-79
2022/07/29 01:31:36;;;;;;;8.27;7.57;;;;;;;23.52;62.05;98517.59;6920937;28;20235;-79
2022/07/29 01:35:03;;;;;;;7.43;6.73;;;;;;;24.04;59.99;98500.06;6922807;28;20225;-79
2022/07/29 01:38:26;;;;;;;7.80;6.93;;;;;;;24.00;59.17;98513.63;6922275;28;20698;-78
2022/07/29 01:41:51;;;;;;;7.20;6.60;;;;;;;24.11;59.38;98515.09;6923159;28;20726;-79
2022/07/29 01:45:16;;;;;;;7.10;6.37;;;;;;;24.21;59.49;98503.94;6928123;28;20219;-79
2022/07/29 01:48:42;;;;;;;7.33;6.63;;;;;;;24.19;58.86;98483.31;6924059;28;20238;-80
2022/07/29 01:52:07;;;;;;;6.80;6.17;;;;;;;24.46;57.73;98502.69;6923320;28;20358;-79
2022/07/29 01:55:31;;;;;;;8.00;6.77;;;;;;;24.19;58.30;98502.59;6923990;28;20210;-80
2022/07/29 01:58:53;;;;;;;8.10;7.40;;;;;;;23.92;58.79;98508.78;6923918;28;20213;-80
2022/07/29 02:02:16;;;;;;;8.47;7.67;;;;;;;23.60;60.53;98513.38;6928418;28;20228;-80
2022/07/29 02:05:41;;;;;;;11.50;7.73;;;;;;;23.66;60.35;98514.94;6927991;28;20639;-79
2022/07/29 02:09:03;;;;;;;7.30;6.20;;;;;;;23.89;59.54;98512.13;6924669;28;20266;-80
2022/07/29 02:12:26;;;;;;;8.13;7.43;;;;;;;23.56;60.17;98521.41;6921847;28;20692;-80
2022/07/29 02:15:49;;;;;;;7.83;7.07;;;;;;;23.74;59.68;98519.75;6921918;28;20219;-80
2022/07/29 02:19:11;;;;;;;7.37;6.07;;;;;;;23.81;59.15;98510.03;6930284;28;20202;-81
2022/07/29 02:22:36;;;;;;;8.20;7.43;;;;;;;23.15;59.95;98492.72;6939101;28;20279;-79
2022/07/29 02:25:58;;;;;;;7.63;6.93;;;;;;;23.41;60.17;98513.31;6921634;28;20606;-79
2022/07/29 02:29:20;;;;;;;7.53;6.93;;;;;;;23.53;59.85;98513.72;6939552;28;20231;-79
2022/07/29 02:32:42;;;;;;;8.30;6.83;;;;;;;23.16;60.28;98501.78;6946469;28;20303;-80
2022/07/29 02:36:05;;;;;;;8.20;7.40;;;;;;;23.15;60.12;98513.91;6947910;28;20206;-79
2022/07/29 02:39:29;;;;;;;8.50;7.30;;;;;;;23.03;61.14;98513.47;6947694;28;20231;-80
2022/07/29 02:42:51;;;;;;;7.50;6.80;;;;;;;23.16;60.20;98472.38;6948763;28;20228;-79
2022/07/29 02:46:15;;;;;;;7.57;6.83;;;;;;;23.35;59.72;98509.00;6949595;28;20221;-80
2022/07/29 02:49:39;;;;;;;7.90;7.00;;;;;;;23.10;60.16;98509.28;6948728;28;20684;-79
2022/07/29 02:53:04;;;;;;;6.63;6.13;;;;;;;23.26;59.61;98502.50;6948993;28;20235;-79
2022/07/29 02:56:29;;;;;;;6.93;6.33;;;;;;;23.05;59.73;98470.81;6949228;28;20209;-79
2022/07/29 02:59:52;;;;;;;8.17;7.47;;;;;;;22.85;60.30;98517.81;6951830;28;20219;-79
2022/07/29 03:03:16;;;;;;;7.67;6.97;;;;;;;22.80;61.12;98500.53;6950133;28;20219;-80
2022/07/29 03:06:38;;;;;;;8.00;7.30;;;;;;;23.01;61.28;98513.75;6949684;28;20218;-80
2022/07/29 03:10:00;;;;;;;7.73;7.10;;;;;;;22.93;60.51;98506.16;6949344;28;20286;-80
2022/07/29 03:13:24;;;;;;;8.63;7.73;;;;;;;22.62;60.82;98485.63;6949941;28;20523;-80
2022/07/29 03:16:46;;;;;;;10.63;8.07;;;;;;;22.53;62.13;98514.81;6950096;28;20668;-80
2022/07/29 03:20:09;;;;;;;8.03;7.33;;;;;;;22.80;60.84;98506.03;6953361;28;20695;-80
2022/07/29 03:23:30;;;;;;;9.37;7.90;;;;;;;22.31;61.04;98486.94;6956485;28;20226;-80
2022/07/29 03:26:52;;;;;;;10.27;8.40;;;;;;;22.33;61.19;98508.66;6948974;28;20223;-80
2022/07/29 03:30:15;;;;;;;8.07;7.37;;;;;;;22.08;62.74;98508.84;6946274;28;20656;-79
2022/07/29 03:33:37;;;;;;;8.70;8.00;;;;;;;22.12;63.19;98501.69;6945945;28;20734;-77
2022/07/29 03:36:58;;;;;;;7.67;6.97;;;;;;;22.52;61.88;98507.69;6947278;28;20691;-76
2022/07/29 03:40:24;;;;;;;7.70;7.00;;;;;;;22.49;61.73;98504.69;6947328;28;20200;-78
2022/07/29 03:43:47;;;;;;;12.10;7.60;;;;;;;22.06;61.21;98489.91;6947775;28;20696;-78
2022/07/29 03:47:10;;;;;;;8.37;7.57;;;;;;;21.87;62.47;98508.19;6947237;28;20348;-78
2022/07/29 03:50:34;;;;;;;8.77;7.97;;;;;;;21.83;63.67;98509.84;6946234;28;20310;-78
2022/07/29 03:53:55;;;;;;;8.23;7.50;;;;;;;22.03;63.10;98520.69;6947313;28;20695;-78
2022/07/29 03:57:17;;;;;;;7.83;7.23;;;;;;;22.21;62.49;98505.44;6951470;28;20245;-78
2022/07/29 04:00:39;;;;;;;7.77;7.07;;;;;;;22.55;61.24;98514.53;6951412;28;20289;-78
2022/07/29 04:04:03;;;;;;;7.33;6.63;;;;;;;22.65;60.61;98526.25;6951155;28;20289;-78
2022/07/29 04:07:25;;;;;;;7.50;6.73;;;;;;;22.87;58.96;98528.50;6951922;28;20733;-77
2022/07/29 04:10:47;;;;;;;7.77;7.07;;;;;;;22.24;60.72;98529.63;6951154;28;20292;-78
2022/07/29 04:14:09;;;;;;;7.20;6.60;;;;;;;22.23;61.53;98534.28;6951594;28;20283;-77
2022/07/29 04:17:30;;;;;;;8.43;6.70;;;;;;;22.66;60.24;98533.38;6951639;28;20218;-78
2022/07/29 04:20:53;;;;;;;6.83;6.23;;;;;;;22.52;60.41;98529.66;6951403;28;20563;-78
2022/07/29 04:24:15;;;;;;;7.90;7.20;;;;;;;22.18;61.35;98547.22;6952185;28;20199;-77
2022/07/29 04:27:59;;;;;;;7.80;7.10;;;;;;;21.54;64.08;98551.97;6970413;28;20184;-79
2022/07/29 04:31:19;;;;;;;7.60;6.90;;;;;;;22.13;62.40;98533.53;6927490;28;20305;-78
2022/07/29 04:34:40;;;;;;;6.70;6.10;;;;;;;22.56;60.26;98530.75;6924427;28;20262;-78
2022/07/29 04:38:04;;;;;;;7.10;6.40;;;;;;;22.81;59.56;98551.66;6923675;28;20616;-78
2022/07/29 04:41:25;;;;;;;7.03;6.17;;;;;;;22.70;60.04;98553.69;6924115;28;20236;-79
2022/07/29 04:44:47;;;;;;;9.40;6.23;;;;;;;22.56;61.16;98541.72;6923086;28;20243;-78
2022/07/29 04:48:08;;;;;;;7.27;6.53;;;;;;;22.80;61.15;98545.34;6922816;28;20197;-78
2022/07/29 04:51:30;;;;;;;8.90;6.07;;;;;;;23.10;59.88;98534.03;6923101;28;20318;-78
2022/07/29 04:54:53;;;;;;;6.27;5.60;;;;;;;23.19;59.72;98542.50;6923211;28;20359;-78
2022/07/29 04:58:15;;;;;;;6.17;5.67;;;;;;;23.19;59.43;98545.25;6922474;28;20702;-78
2022/07/29 05:01:36;;;;;;;5.80;5.30;;;;;;;23.35;58.39;98541.19;6923231;28;20258;-78
2022/07/29 05:04:58;;;;;;;5.27;4.87;;;;;;;23.62;57.92;98542.22;6924089;28;20219;-78
2022/07/29 05:08:19;;;;;;;6.00;5.40;;;;;;;23.51;58.32;98539.88;6924598;28;20220;-78
2022/07/29 05:11:42;;;;;;;6.20;5.70;;;;;;;23.24;59.66;98543.25;6922809;28;20231;-78
2022/07/29 05:15:05;;;;;;;6.13;5.63;;;;;;;23.21;59.59;98518.25;6923053;28;20283;-78
2022/07/29 05:18:27;;;;;;;6.00;5.40;;;;;;;23.35;59.96;98543.94;6922471;28;20700;-77
2022/07/29 05:21:48;;;;;;;7.47;5.53;;;;;;;23.65;58.49;98547.13;6922941;28;20223;-78
2022/07/29 05:25:10;;;;;;;5.67;5.23;;;;;;;23.79;58.03;98531.50;6923318;28;20205;-78
2022/07/29 05:28:35;;;;;;;6.30;5.80;;;;;;;23.19;59.21;98514.97;6924675;28;20211;-78
2022/07/29 05:31:57;;;;;;;4.80;4.50;;;;;;;24.00;57.70;98526.56;6921602;28;20231;-77
2022/07/29 05:35:18;;;;;;;4.70;4.40;;;;;;;24.35;56.81;98526.84;6923251;28;20230;-78
2022/07/29 05:38:40;;;;;;;6.33;5.00;;;;;;;24.47;57.13;98532.69;6924530;28;20343;-78
2022/07/29 05:42:02;;;;;;;4.70;4.37;;;;;;;25.11;55.57;98543.72;6922682;28;20228;-80
2022/07/29 05:45:25;;;;;;;5.13;4.33;;;;;;;25.21;54.98;98537.19;6923145;28;20204;-78
2022/07/29 05:48:46;;;;;;;4.97;4.57;;;;;;;25.69;54.29;98538.41;6922381;28;20214;-79
2022/07/29 05:52:08;;;;;;;6.20;4.20;;;;;;;25.91;54.04;98550.41;6932716;28;20238;-79
2022/07/29 05:55:30;;;;;;;5.00;4.57;;;;;;;26.21;52.48;98549.72;6938487;28;20645;-79
2022/07/29 05:58:52;;;;;;;4.27;3.90;;;;;;;26.68;51.79;98532.53;6934461;28;20204;-79
2022/07/29 06:02:16;;;;;;;6.67;4.20;;;;;;;27.03;50.96;98552.91;6932454;28;20645;-78
2022/07/29 06:05:38;;;;;;;4.20;3.90;;;;;;;26.93;49.42;98531.84;6938795;28;20210;-78
2022/07/29 06:09:00;;;;;;;4.40;4.00;;;;;;;26.38;50.50;98502.84;6939188;28;20210;-79
2022/07/29 06:12:22;;;;;;;3.93;3.60;;;;;;;26.66;50.51;98550.56;6925079;28;20227;-78
2022/07/29 06:15:43;;;;;;;3.80;3.50;;;;;;;27.01;49.56;98542.16;6936671;28;20604;-78
2022/07/29 06:19:06;;;;;;;4.53;3.40;;;;;;;27.53;48.18;98557.88;6926059;28;20227;-78
2022/07/29 06:22:28;;;;;;;5.33;3.80;;;;;;;27.43;48.33;98555.41;6926092;28;20248;-79
2022/07/29 06:25:50;;;;;;;3.67;3.37;;;;;;;27.86;47.29;98550.03;6925692;28;20220;-79
2022/07/29 06:29:12;;;;;;;3.80;3.50;;;;;;;28.07;46.94;98557.41;6940503;28;20210;-78
2022/07/29 06:32:34;;;;;;;5.40;3.57;;;;;;;27.26;48.76;98560.06;6935217;28;20234;-79
2022/07/29 06:35:57;;;;;;;4.20;3.80;;;;;;;27.83;48.13;98565.34;6948454;28;20199;-79
2022/07/29 06:39:19;;;;;;;3.10;2.90;;;;;;;28.34;46.68;98575.69;6939301;28;20208;-78
2022/07/29 06:42:43;;;;;;;4.33;3.50;;;;;;;28.29;46.01;98568.34;6922997;28;20617;-79
2022/07/29 06:46:07;;;;;;;3.90;3.20;;;;;;;28.78;44.38;98578.97;6927099;28;20687;-80
2022/07/29 06:49:28;;;;;;;3.27;3.07;;;;;;;29.20;43.59;98561.41;6928589;28;20209;-79
2022/07/29 06:52:51;;;;;;;3.40;3.10;;;;;;;29.09;43.69;98524.06;6927821;28;20298;-79
2022/07/29 06:56:13;;;;;;;4.67;3.57;;;;;;;29.68;42.80;98567.50;6929216;28;20224;-79
2022/07/29 06:59:35;;;;;;;3.53;2.93;;;;;;;30.05;41.80;98574.94;6926851;28;20543;-79
2022/07/29 07:02:56;;;;;;;3.60;3.13;;;;;;;30.08;42.25;98579.81;6926324;28;20276;-79
2022/07/29 07:06:18;;;;;;;3.40;3.10;;;;;;;30.22;42.16;98582.38;6926920;28;20632;-79
2022/07/29 07:09:41;;;;;;;4.50;3.30;;;;;;;30.15;41.88;98545.94;6928113;28;20677;-79
2022/07/29 07:13:03;;;;;;;4.20;3.17;;;;;;;29.97;42.62;98584.16;6925235;28;20245;-79
2022/07/29 07:16:24;;;;;;;3.83;3.33;;;;;;;30.01;42.66;98585.09;6920867;28;20235;-79
2022/07/29 07:19:46;;;;;;;3.40;3.10;;;;;;;30.19;41.49;98581.09;6925688;28;20270;-80
2022/07/29 07:23:07;;;;;;;3.60;3.30;;;;;;;29.61;42.85;98588.59;6922472;28;20713;-78
2022/07/29 07:26:30;;;;;;;4.87;3.00;;;;;;;30.38;41.78;98580.63;6922006;28;20216;-78
2022/07/29 07:29:52;;;;;;;4.67;3.70;;;;;;;29.66;43.01;98586.44;6922192;28;20216;-78
2022/07/29 07:33:14;;;;;;;3.10;2.90;;;;;;;29.67;43.08;98581.72;6924795;28;20234;-78
2022/07/29 07:36:35;;;;;;;3.20;3.00;;;;;;;29.52;42.64;98585.00;6926002;28;20197;-79
2022/07/29 07:39:57;;;;;;;3.87;3.57;;;;;;;29.62;43.11;98598.56;6925821;28;20217;-79
2022/07/29 07:43:21;;;;;;;3.90;3.20;;;;;;;29.27;43.74;98595.06;6927619;28;20813;-78
2022/07/29 07:46:44;;;;;;;4.47;2.90;;;;;;;30.25;41.02;98573.38;6925347;28;20207;-78
2022/07/29 07:50:08;;;;;;;3.20;3.00;;;;;;;30.08;41.14;98599.28;6924513;28;20210;-77
2022/07/29 07:53:30;;;;;;;3.53;3.23;;;;;;;29.97;41.62;98572.22;6924243;28;20240;-77
2022/07/29 07:56:52;;;;;;;3.23;2.77;;;;;;;30.50;40.43;98592.66;6926121;28;20208;-80
2022/07/29 08:00:17;;;;;;;4.33;2.80;;;;;;;30.63;40.87;98587.94;6926296;28;20349;-80
2022/07/29 08:03:39;;;;;;;3.77;3.47;;;;;;;29.89;41.13;98585.00;6926626;28;20223;-79
2022/07/29 08:07:00;;;;;;;5.00;3.13;;;;;;;29.88;42.45;98593.69;6925715;28;20426;-79
2022/07/29 08:13:57;;;;;;;3.90;3.30;;;;;;;29.77;41.28;98584.91;6925365;28;20275;-79
2022/07/29 08:17:20;;;;;;;3.40;2.97;;;;;;;29.13;43.40;98583.34;6924602;28;20230;-78
2022/07/29 08:20:42;;;;;;;6.10;3.37;;;;;;;29.54;41.98;98577.19;6924773;28;20579;-79
2022/07/29 08:27:43;;;;;;;3.20;2.90;;;;;;;29.54;42.83;98585.53;6924696;28;20188;-79
2022/07/29 08:31:05;;;;;;;4.00;3.20;;;;;;;30.99;39.71;98590.91;6923886;28;20235;-79
2022/07/29 08:34:28;;;;;;;3.77;2.97;;;;;;;31.61;39.17;98583.19;6924305;28;20224;-79
2022/07/29 08:37:50;;;;;;;5.30;3.10;;;;;;;31.04;38.67;98597.09;6924030;28;20292;-78
2022/07/29 08:41:11;;;;;;;3.93;3.23;;;;;;;30.34;40.13;98577.72;6924170;28;20234;-78
2022/07/29 08:44:33;;;;;;;3.57;3.20;;;;;;;31.81;37.91;98594.28;6948300;28;20195;-80
2022/07/29 08:47:56;;;;;;;3.43;3.13;;;;;;;32.00;36.83;98588.09;6927529;28;20204;-79
2022/07/29 08:51:21;;;;;;;3.33;3.03;;;;;;;31.47;38.40;98585.50;6924458;28;20238;-79
2022/07/29 08:54:44;;;;;;;3.83;3.37;;;;;;;31.48;37.06;98592.72;6923521;28;20297;-79
2022/07/29 08:58:06;;;;;;;4.83;3.30;;;;;;;30.34;40.32;98579.69;6922777;28;20284;-79
2022/07/29 09:01:30;;;;;;;3.70;3.40;;;;;;;31.82;37.06;98576.38;6924997;28;20373;-79
2022/07/29 09:04:52;;;;;;;4.47;3.00;;;;;;;32.39;35.91;98582.63;6936121;28;20235;-79
2022/07/29 09:08:15;;;;;;;4.43;3.40;;;;;;;31.65;36.83;98581.31;6925908;28;20309;-79
2022/07/29 09:11:37;;;;;;;3.70;3.40;;;;;;;31.67;36.48;98565.09;6926572;28;20225;-79
2022/07/29 09:14:58;;;;;;;4.37;3.50;;;;;;;32.36;35.34;98571.38;6927503;28;20251;-79
2022/07/29 09:18:34;;;;;;;5.47;3.40;;;;;;;33.90;32.32;98570.13;6928543;28;20746;-79
2022/07/29 09:22:00;;;;;;;8.80;3.60;;;;;;;34.00;32.46;98586.34;6929381;28;20216;-80
2022/07/29 09:25:35;;;;;;;3.87;3.30;;;;;;;33.77;32.45;98586.19;6928952;28;20199;-79
2022/07/29 09:28:58;;;;;;;4.03;3.43;;;;;;;33.52;32.83;98572.72;6924791;28;20207;-79
2022/07/29 09:32:19;;;;;;;4.83;3.40;;;;;;;32.67;34.66;98582.66;6924126;28;20231;-79
2022/07/29 09:35:41;;;;;;;4.17;3.47;;;;;;;34.04;33.12;98588.06;6924621;28;20219;-80
2022/07/29 09:39:03;;;;;;;4.73;3.63;;;;;;;33.71;32.82;98576.41;6924613;28;20728;-80
2022/07/29 09:42:32;;;;;;;5.17;3.47;;;;;;;33.88;32.76;98583.63;6925158;28;20620;-79
2022/07/29 09:45:54;;;;;;;3.90;3.50;;;;;;;33.42;33.66;98579.66;6924937;28;20193;-79
2022/07/29 09:49:15;;;;;;;5.30;3.40;;;;;;;33.35;33.77;98564.66;6925726;28;20568;-79
2022/07/29 09:52:46;;;;;;;5.27;3.20;;;;;;;34.11;32.45;98571.44;6923811;28;20236;-79
2022/07/29 09:56:10;;;;;;;4.70;3.40;;;;;;;34.71;31.29;98551.19;6936129;28;20233;-79
2022/07/29 09:59:34;;;;;;;6.53;3.80;;;;;;;33.94;31.84;98548.63;6929097;28;20267;-79
2022/07/29 10:03:02;;;;;;;6.73;3.57;;;;;;;33.18;32.83;98567.75;6927422;28;20722;-79
2022/07/29 10:06:23;;;;;;;3.90;3.60;;;;;;;33.34;31.93;98535.91;6926479;28;20211;-80
2022/07/29 10:09:52;;;;;;;6.80;3.63;;;;;;;31.79;33.55;98551.97;6925001;28;20244;-79
2022/07/29 10:13:14;;;;;;;4.27;3.83;;;;;;;31.86;34.78;98552.22;6924384;28;20864;-79
2022/07/29 10:16:37;;;;;;;4.23;3.30;;;;;;;32.90;33.49;98553.84;6925330;28;20214;-79
2022/07/29 10:19:59;;;;;;;4.50;3.80;;;;;;;32.83;32.26;98553.63;6924152;28;20232;-80
2022/07/29 10:23:20;;;;;;;5.00;3.90;;;;;;;33.19;31.87;98527.50;6924444;28;20559;-79
2022/07/29 10:26:43;;;;;;;6.50;4.30;;;;;;;31.98;34.26;98554.16;6923889;28;20223;-79
2022/07/29 10:30:05;;;;;;;5.07;3.37;;;;;;;32.37;33.39;98548.66;6924138;28;20270;-79
2022/07/29 10:33:40;;;;;;;4.20;3.53;;;;;;;33.47;31.86;98505.88;6950970;28;20255;-79
2022/07/29 10:37:06;;;;;;;4.50;3.47;;;;;;;34.24;31.20;98536.53;6951635;28;20325;-80
2022/07/29 10:44:15;;;;;;;5.30;3.67;;;;;;;34.75;30.22;98540.09;6953039;28;20183;-80
2022/07/29 10:47:37;;;;;;;3.60;3.30;;;;;;;34.88;30.02;98535.94;6952796;28;20213;-80
2022/07/29 10:51:02;;;;;;;7.17;3.70;;;;;;;33.37;31.59;98528.78;6968500;28;20199;-79
2022/07/29 10:54:49;;;;;;;3.90;3.60;;;;;;;33.56;31.37;98529.69;6961486;28;20582;-79
2022/07/29 10:58:16;;;;;;;4.47;3.73;;;;;;;33.79;31.80;98524.28;6952577;28;20192;-78
2022/07/29 11:01:37;;;;;;;4.23;3.67;;;;;;;33.53;30.52;98482.06;6951242;28;20227;-79
2022/07/29 11:05:03;;;;;;;4.70;3.73;;;;;;;33.48;30.31;98525.09;6957177;28;20209;-79
2022/07/29 11:08:26;;;;;;;7.17;4.20;;;;;;;33.21;31.24;98531.56;6959969;28;20203;-79
2022/07/29 11:11:48;;;;;;;4.27;3.53;;;;;;;33.02;30.82;98525.84;6961303;28;20249;-79
2022/07/29 11:15:16;;;;;;;4.07;3.70;;;;;;;32.62;31.57;98533.47;6962528;28;20222;-79
2022/07/29 11:19:21;;;;;;;5.40;3.73;;;;;;;31.32;34.03;98542.38;6964075;28;20186;-79
2022/07/29 11:22:44;;;;;;;6.63;4.03;;;;;;;31.73;33.31;98516.31;6956859;28;20319;-79
2022/07/29 11:26:19;;;;;;;4.70;3.80;;;;;;;31.40;33.24;98549.84;6955002;28;20202;-80
2022/07/29 11:29:50;;;;;;;5.47;4.43;;;;;;;31.04;34.07;98560.91;6946230;28;20205;-79
2022/07/29 11:33:30;;;;;;;6.77;3.97;;;;;;;31.39;34.87;98567.75;6933578;28;20233;-79
2022/07/29 11:37:24;;;;;;;5.15;4.10;;;;;;;30.85;38.50;98579.28;6933389;28;20450;-79
2022/07/29 11:41:26;;;;;;;7.63;4.47;;;;;;;30.56;40.34;98591.31;6940265;28;20205;-79
2022/07/29 11:44:55;;;;;;;9.50;5.73;;;;;;;30.67;42.40;98592.53;6962289;28;20219;-79
2022/07/29 11:48:19;;;;;;;7.60;6.07;;;;;;;29.48;45.08;98592.41;6960453;28;20615;-78
2022/07/29 11:51:42;;;;;;;7.83;5.93;;;;;;;28.63;47.87;98579.47;6962924;28;20611;-78
2022/07/29 11:55:05;;;;;;;9.87;6.20;;;;;;;28.93;47.59;98578.47;6964715;28;20228;-79
2022/07/29 11:58:29;;;;;;;8.53;6.40;;;;;;;28.60;49.86;98601.53;6961464;28;20209;-78
2022/07/29 12:01:54;;;;;;;7.70;6.03;;;;;;;28.03;51.61;98611.03;6957126;28;20265;-79
2022/07/29 12:05:15;;;;;;;7.80;4.80;;;;;;;28.40;49.15;98600.19;6956582;28;20276;-78
2022/07/29 12:08:42;;;;;;;6.73;5.03;;;;;;;28.82;47.22;98599.38;6955729;28;20771;-78
2022/07/29 12:12:04;;;;;;;6.27;4.93;;;;;;;28.91;48.99;98602.94;6956621;28;20233;-79
2022/07/29 12:15:27;;;;;;;7.47;4.77;;;;;;;28.48;50.35;98607.69;6954032;28;20320;-78
2022/07/29 12:18:56;;;;;;;6.80;5.00;;;;;;;28.02;51.37;98590.00;6951479;28;20309;-78
2022/07/29 12:22:26;;;;;;;8.13;4.80;;;;;;;27.82;52.23;98596.13;6951995;28;20229;-78
2022/07/29 12:25:48;;;;;;;7.80;5.17;;;;;;;27.79;52.91;98580.16;6950866;28;20203;-78
2022/07/29 12:29:16;;;;;;;8.47;5.70;;;;;;;27.96;53.13;98581.00;6951426;28;20208;-79
2022/07/29 12:32:39;;;;;;;7.93;4.70;;;;;;;27.84;52.40;98589.13;6950836;28;20228;-78
2022/07/29 12:36:03;;;;;;;10.00;4.57;;;;;;;27.58;52.11;98587.38;6952141;28;20218;-78
2022/07/29 12:39:27;;;;;;;8.57;5.20;;;;;;;27.67;54.73;98585.47;6951982;28;20703;-78
2022/07/29 12:43:09;;;;;;;7.90;4.80;;;;;;;27.86;53.03;98577.75;6951968;28;20305;-78
2022/07/29 12:46:31;;;;;;;4.33;3.70;;;;;;;27.82;52.71;98583.09;6951983;28;20208;-79
2022/07/29 12:50:08;;;;;;;3.70;3.30;;;;;;;27.64;51.91;98562.00;6951417;28;20200;-79
2022/07/29 12:53:30;;;;;;;4.30;3.90;;;;;;;27.52;53.08;98577.59;6951312;28;20314;-78
2022/07/29 12:56:59;;;;;;;5.27;4.20;;;;;;;27.24;55.37;98579.75;6961644;28;20201;-78
2022/07/29 13:00:23;;;;;;;4.83;3.50;;;;;;;27.04;51.99;98566.44;6965606;28;20195;-78
2022/07/29 13:03:51;;;;;;;4.77;3.93;;;;;;;27.26;52.52;98584.97;6951303;28;20737;-78
2022/07/29 13:07:14;;;;;;;3.83;3.40;;;;;;;27.22;52.97;98582.03;6950699;28;20728;-78
2022/07/29 13:10:36;;;;;;;3.90;3.50;;;;;;;27.55;51.36;98568.66;6954627;28;20212;-79
2022/07/29 13:13:58;;;;;;;4.73;4.00;;;;;;;26.65;51.98;98594.00;6954063;28;20849;-79
2022/07/29 13:17:22;;;;;;;4.27;3.20;;;;;;;26.77;50.76;98577.66;6955789;28;20205;-79
2022/07/29 13:20:44;;;;;;;7.50;4.20;;;;;;;27.13;51.97;98594.97;6955305;28;20741;-79
2022/07/29 13:24:08;;;;;;;6.30;3.37;;;;;;;27.37;51.13;98592.69;6953246;28;20204;-79
2022/07/29 13:27:31;;;;;;;5.90;3.50;;;;;;;26.94;50.67;98576.94;6953207;28;20220;-80
2022/07/29 13:30:54;;;;;;;6.33;3.60;;;;;;;27.10;49.42;98603.09;6954158;28;20211;-80
2022/07/29 13:34:15;;;;;;;4.00;3.67;;;;;;;27.19;50.34;98606.78;6954109;28;20699;-79
2022/07/29 13:37:38;;;;;;;7.87;3.60;;;;;;;27.05;50.74;98606.81;6953784;28;20235;-80
2022/07/29 13:41:01;;;;;;;4.60;3.20;;;;;;;26.78;52.51;98606.16;6954968;28;20215;-79
2022/07/29 13:44:23;;;;;;;4.53;3.03;;;;;;;27.27;49.71;98604.06;6953913;28;20209;-79
2022/07/29 13:47:44;;;;;;;3.87;3.33;;;;;;;26.70;51.79;98604.94;6953785;28;20241;-79
2022/07/29 13:51:06;;;;;;;5.87;3.67;;;;;;;26.28;54.19;98596.25;6955311;28;20233;-79
2022/07/29 13:54:27;;;;;;;4.07;3.60;;;;;;;26.00;54.99;98603.78;6953305;28;20328;-79
2022/07/29 13:57:50;;;;;;;5.43;3.83;;;;;;;26.33;52.14;98598.91;6952824;28;20240;-79
2022/07/29 14:01:12;;;;;;;4.20;3.90;;;;;;;24.99;56.14;98598.56;6956341;28;20771;-79
2022/07/29 14:04:34;;;;;;;8.17;3.83;;;;;;;25.29;54.93;98592.53;6953529;28;20231;-79
2022/07/29 14:07:55;;;;;;;3.87;3.57;;;;;;;26.19;52.83;98584.31;6953097;28;20214;-79
2022/07/29 14:11:17;;;;;;;4.13;3.60;;;;;;;26.51;50.98;98550.91;6954213;28;20259;-79
2022/07/29 14:14:41;;;;;;;4.70;4.23;;;;;;;26.34;55.20;98568.19;6954399;28;20241;-79
2022/07/29 14:18:02;;;;;;;4.33;3.93;;;;;;;26.29;51.61;98553.66;6953027;28;20268;-77
2022/07/29 14:21:24;;;;;;;4.27;3.97;;;;;;;26.62;51.31;98547.63;6950505;28;20302;-78
2022/07/29 14:24:46;;;;;;;4.70;4.30;;;;;;;26.96;50.98;98547.81;6924824;28;20246;-77
2022/07/29 14:28:07;;;;;;;4.70;4.30;;;;;;;27.28;50.99;98552.25;6920745;28;20596;-77
2022/07/29 14:31:31;;;;;;;5.67;4.57;;;;;;;27.47;49.92;98558.34;6920126;28;20237;-78
2022/07/29 14:34:53;;;;;;;5.07;4.57;;;;;;;27.42;51.30;98547.44;6921342;28;20241;-78
2022/07/29 14:38:14;;;;;;;6.07;4.23;;;;;;;27.49;49.92;98533.94;6920664;28;20222;-78
2022/07/29 14:41:36;;;;;;;4.30;4.00;;;;;;;27.71;49.51;98556.00;6921066;28;20230;-78
2022/07/29 14:44:57;;;;;;;5.23;4.40;;;;;;;27.62;50.90;98553.22;6925728;28;20612;-78
2022/07/29 14:48:20;;;;;;;4.20;3.90;;;;;;;27.52;53.64;98567.34;6925820;28;20217;-78
2022/07/29 14:51:42;;;;;;;4.63;4.23;;;;;;;26.95;54.37;98528.78;6924532;28;20256;-78
2022/07/29 14:55:05;;;;;;;4.73;4.33;;;;;;;27.20;54.45;98569.63;6925444;28;20284;-77
2022/07/29 14:58:26;;;;;;;7.03;4.53;;;;;;;27.42;52.96;98583.44;6926611;28;20210;-78
2022/07/29 15:01:49;;;;;;;6.20;4.50;;;;;;;27.42;53.48;98573.16;6923264;28;20236;-78
2022/07/29 15:05:12;;;;;;;5.60;4.77;;;;;;;27.70;51.02;98595.91;6940215;28;20257;-79
2022/07/29 15:08:34;;;;;;;8.50;4.80;;;;;;;27.37;51.75;98558.66;6927617;28;20223;-79
2022/07/29 15:11:55;;;;;;;4.77;4.40;;;;;;;27.63;50.80;98585.31;6928003;28;20228;-79
2022/07/29 15:15:17;;;;;;;7.00;4.67;;;;;;;27.37;50.81;98600.97;6925502;28;20558;-79
2022/07/29 15:18:39;;;;;;;6.37;5.23;;;;;;;27.50;51.10;98594.56;6923710;28;20220;-80
2022/07/29 15:22:02;;;;;;;8.83;4.70;;;;;;;27.75;50.60;98596.59;6925769;28;20233;-80
2022/07/29 15:25:23;;;;;;;6.23;5.03;;;;;;;27.17;51.54;98545.34;6925840;28;20212;-79
2022/07/29 15:28:45;;;;;;;5.63;4.50;;;;;;;27.16;50.85;98544.56;6920040;28;20211;-77
2022/07/29 15:32:07;;;;;;;4.80;4.40;;;;;;;27.52;50.73;98591.44;6919326;28;20726;-77
2022/07/29 15:35:29;;;;;;;4.40;4.10;;;;;;;27.55;49.61;98561.16;6919753;28;20240;-77
2022/07/29 15:38:54;;;;;;;4.63;4.17;;;;;;;27.74;49.99;98583.88;6919634;28;20347;-79
2022/07/29 15:42:15;;;;;;;5.07;4.03;;;;;;;27.46;50.05;98557.53;6920238;28;20227;-78
2022/07/29 15:45:38;;;;;;;5.17;4.40;;;;;;;27.52;49.84;98545.19;6920027;28;20269;-78
2022/07/29 15:48:59;;;;;;;4.90;4.40;;;;;;;27.71;50.71;98567.88;6920425;28;20219;-78
2022/07/29 15:52:21;;;;;;;4.87;4.47;;;;;;;27.99;50.27;98572.06;6922832;28;20241;-78
2022/07/29 15:55:44;;;;;;;4.20;3.70;;;;;;;28.05;50.04;98590.19;6924529;28;20724;-78
2022/07/29 15:59:06;;;;;;;5.57;4.27;;;;;;;27.50;51.13;98572.41;6924157;28;20212;-78
2022/07/29 16:02:27;;;;;;;5.97;4.00;;;;;;;27.84;50.47;98580.03;6925158;28;20280;-78
2022/07/29 16:05:49;;;;;;;7.07;4.60;;;;;;;27.87;50.79;98584.91;6924846;28;20211;-78
2022/07/29 16:09:10;;;;;;;5.03;4.13;;;;;;;28.02;49.42;98574.19;6925004;28;20343;-78
2022/07/29 16:12:33;;;;;;;4.80;4.30;;;;;;;28.28;49.42;98586.13;6925794;28;20263;-78